createdAt,value
2024-05-09T00:01:38.093Z,72.49
2024-05-09T00:04:12.009Z,70.65
2024-05-09T00:06:43.560Z,72.51
2024-05-09T00:09:14.691Z,73.73
2024-05-09T00:11:46.265Z,73.94
2024-05-09T00:14:17.508Z,75.34
2024-05-09T00:16:50.045Z,75.67
2024-05-09T00:19:23.993Z,76.85
2024-05-09T00:21:55.588Z,76.48
2024-05-09T00:24:26.762Z,75.50
2024-05-09T00:26:58.344Z,74.76
2024-05-09T00:29:29.816Z,74.42
2024-05-09T00:32:01.571Z,75.14
2024-05-09T00:34:35.536Z,74.59
2024-05-09T00:37:07.396Z,74.40
2024-05-09T00:39:38.572Z,74.24
2024-05-09T00:42:10.152Z,74.59
2024-05-09T00:44:41.346Z,74.01
2024-05-09T00:47:12.996Z,73.71
2024-05-09T00:49:47.349Z,73.31
2024-05-09T00:52:19.483Z,73.45
2024-05-09T00:54:50.867Z,73.16
2024-05-09T00:57:22.473Z,73.09
2024-05-09T00:59:54.700Z,72.26
2024-05-09T01:02:28.794Z,71.76
2024-05-09T01:05:02.882Z,71.66
2024-05-09T01:07:34.700Z,71.90
2024-05-09T01:10:11.734Z,71.48
2024-05-09T01:12:48.654Z,71.46
2024-05-09T01:15:19.837Z,70.91
2024-05-09T01:17:51.994Z,70.00
2024-05-09T01:20:36.873Z,69.56
2024-05-09T01:23:16.879Z,69.30
2024-05-09T01:25:48.483Z,69.31
2024-05-09T01:28:20.097Z,69.35
2024-05-09T01:30:51.268Z,70.42
2024-05-09T01:33:23.053Z,70.05
2024-05-09T01:35:54.354Z,70.04
2024-05-09T01:38:28.697Z,70.12
2024-05-09T01:41:00.163Z,70.07
2024-05-09T01:43:31.763Z,70.58
2024-05-09T01:46:02.906Z,71.16
2024-05-09T01:48:34.603Z,71.84
2024-05-09T01:51:05.941Z,72.17
2024-05-09T01:53:40.843Z,73.50
2024-05-09T01:56:12.461Z,73.91
2024-05-09T01:58:44.153Z,74.04
2024-05-09T02:01:15.357Z,74.25
2024-05-09T02:03:49.543Z,74.13
2024-05-09T02:06:20.943Z,74.39
2024-05-09T02:08:55.164Z,74.46
2024-05-09T02:11:26.372Z,74.80
2024-05-09T02:13:58.002Z,74.78
2024-05-09T02:16:29.152Z,74.08
2024-05-09T02:19:00.916Z,73.81
2024-05-09T02:21:34.244Z,73.98
2024-05-09T02:24:08.877Z,74.03
2024-05-09T02:26:40.159Z,73.95
2024-05-09T02:29:11.837Z,73.80
2024-05-09T02:31:43.209Z,73.65
2024-05-09T02:34:14.878Z,73.23
2024-05-09T02:36:46.049Z,72.77
2024-05-09T02:39:17.630Z,73.31
2024-05-09T02:41:48.843Z,73.70
2024-05-09T02:44:17.887Z,73.62
2024-05-09T02:46:49.270Z,73.32
2024-05-09T02:49:18.468Z,74.10
2024-05-09T02:51:49.632Z,74.14
2024-05-09T02:54:21.168Z,74.24
2024-05-09T02:56:52.406Z,73.80
2024-05-09T02:59:21.490Z,74.35
2024-05-09T03:01:52.787Z,74.37
2024-05-09T03:04:21.932Z,73.87
2024-05-09T03:06:53.171Z,73.71
2024-05-09T03:09:25.263Z,74.69
2024-05-09T03:11:56.513Z,74.76
2024-05-09T03:14:25.516Z,74.71
2024-05-09T03:16:56.794Z,75.12
2024-05-09T03:19:25.971Z,75.28
2024-05-09T03:21:57.113Z,76.63
2024-05-09T03:24:28.699Z,76.07
2024-05-09T03:26:59.918Z,75.63
2024-05-09T03:29:28.934Z,75.77
2024-05-09T03:32:00.160Z,75.51
2024-05-09T03:34:29.134Z,75.30
2024-05-09T03:37:00.226Z,75.31
2024-05-09T03:39:34.508Z,74.72
2024-05-09T03:42:05.779Z,75.12
2024-05-09T03:44:37.414Z,75.86
2024-05-09T03:47:06.042Z,75.55
2024-05-09T03:49:37.721Z,75.14
2024-05-09T03:52:06.740Z,75.83
2024-05-09T03:54:47.594Z,76.38
2024-05-09T03:57:16.160Z,76.90
2024-05-09T03:59:47.648Z,76.42
2024-05-09T04:02:16.203Z,76.06
2024-05-09T04:04:47.996Z,76.44
2024-05-09T04:07:17.089Z,76.37
2024-05-09T04:09:51.400Z,75.61
2024-05-09T04:12:19.953Z,76.56
2024-05-09T04:14:51.486Z,76.03
2024-05-09T04:17:19.994Z,76.38
2024-05-09T04:19:51.696Z,75.77
2024-05-09T04:22:20.248Z,75.92
2024-05-09T04:24:54.651Z,76.11
2024-05-09T04:27:23.154Z,75.31
2024-05-09T04:29:54.741Z,75.09
2024-05-09T04:32:23.326Z,75.25
2024-05-09T04:34:55.114Z,75.20
2024-05-09T04:37:23.666Z,74.52
2024-05-09T04:39:58.058Z,74.46
2024-05-09T04:42:26.639Z,74.42
2024-05-09T04:44:58.812Z,73.98
2024-05-09T04:47:27.456Z,73.94
2024-05-09T04:49:59.062Z,73.29
2024-05-09T04:52:27.549Z,72.75
2024-05-09T04:55:01.863Z,72.35
2024-05-09T04:57:30.403Z,71.12
2024-05-09T05:00:04.069Z,71.53
2024-05-09T05:02:34.087Z,71.43
2024-05-09T05:05:05.990Z,71.30
2024-05-09T05:07:34.600Z,71.70
2024-05-09T05:10:14.839Z,71.49
2024-05-09T05:13:07.884Z,71.41
2024-05-09T05:15:39.444Z,71.87
2024-05-09T05:18:08.129Z,72.86
2024-05-09T05:20:39.926Z,72.77
2024-05-09T05:23:10.921Z,73.00
2024-05-09T05:25:47.962Z,72.73
2024-05-09T05:28:17.343Z,72.92
2024-05-09T05:30:49.544Z,72.31
2024-05-09T05:33:19.275Z,72.19
2024-05-09T05:35:51.595Z,72.25
2024-05-09T05:38:23.793Z,72.92
2024-05-09T05:41:00.601Z,73.19
2024-05-09T05:43:29.725Z,73.89
2024-05-09T05:46:01.259Z,73.33
2024-05-09T05:48:30.238Z,74.52
2024-05-09T05:51:04.303Z,74.34
2024-05-09T05:53:33.579Z,73.68
2024-05-09T05:56:08.632Z,72.42
2024-05-09T05:58:37.164Z,72.54
2024-05-09T06:01:09.478Z,72.90
2024-05-09T06:03:38.583Z,72.39
2024-05-09T06:06:10.570Z,71.88
2024-05-09T06:08:39.184Z,72.45
2024-05-09T06:11:13.488Z,71.76
2024-05-09T06:13:43.695Z,71.04
2024-05-09T06:16:15.243Z,71.73
2024-05-09T06:18:43.871Z,69.84
2024-05-09T06:21:16.000Z,70.14
2024-05-09T06:23:51.274Z,67.61
2024-05-09T06:26:25.738Z,66.00
2024-05-09T06:28:54.364Z,66.01
2024-05-09T06:31:25.950Z,64.20
2024-05-09T06:33:54.588Z,64.55
2024-05-09T06:36:26.165Z,63.20
2024-05-09T06:38:54.655Z,62.42
2024-05-09T06:41:28.994Z,58.96
2024-05-09T06:43:57.691Z,57.95
2024-05-09T06:46:29.586Z,55.48
2024-05-09T06:48:59.313Z,57.17
2024-05-09T06:51:30.728Z,55.19
2024-05-09T06:53:59.209Z,56.07
2024-05-09T06:56:33.409Z,55.64
2024-05-09T06:59:02.135Z,56.37
2024-05-09T07:01:33.952Z,57.40
2024-05-09T07:04:02.649Z,57.33
2024-05-09T07:06:34.246Z,57.60
2024-05-09T07:09:02.746Z,57.62
2024-05-09T07:11:38.218Z,58.24
2024-05-09T07:14:06.905Z,57.49
2024-05-09T07:16:38.450Z,57.39
2024-05-09T07:19:07.263Z,56.14
2024-05-09T07:21:38.941Z,57.34
2024-05-09T07:24:07.530Z,55.27
2024-05-09T07:26:41.786Z,55.19
2024-05-09T07:29:10.379Z,55.28
2024-05-09T07:31:41.918Z,55.07
2024-05-09T07:34:12.090Z,55.51
2024-05-09T07:36:43.776Z,55.71
2024-05-09T07:39:12.406Z,55.01
2024-05-09T07:41:46.731Z,54.75
2024-05-09T07:44:15.370Z,55.29
2024-05-09T07:47:48.600Z,54.49
2024-05-09T07:53:29.728Z,52.93
2024-05-09T07:55:02.459Z,52.93
2024-05-09T07:57:37.479Z,52.40
2024-05-09T08:00:08.239Z,52.27
2024-05-09T08:02:43.197Z,51.72
2024-05-09T08:05:11.886Z,50.87
2024-05-09T08:07:45.355Z,51.48
2024-05-09T08:10:18.716Z,52.01
2024-05-09T08:12:56.118Z,51.84
2024-05-09T08:15:24.695Z,51.79
2024-05-09T08:17:57.085Z,51.31
2024-05-09T08:20:31.116Z,50.81
2024-05-09T08:23:06.748Z,50.48
2024-05-09T08:25:35.325Z,50.91
2024-05-09T08:28:11.062Z,50.97
2024-05-09T08:30:39.822Z,50.87
2024-05-09T08:33:11.599Z,50.55
2024-05-09T08:35:40.167Z,51.42
2024-05-09T08:38:12.131Z,50.04
2024-05-09T08:40:41.464Z,50.28
2024-05-09T08:43:17.021Z,50.25
2024-05-09T08:45:47.060Z,50.43
2024-05-09T08:48:20.878Z,51.28
2024-05-09T08:50:53.452Z,50.21
2024-05-09T08:53:25.216Z,50.72
2024-05-09T08:55:55.148Z,50.24
2024-05-09T08:58:32.456Z,50.39
2024-05-09T09:01:02.847Z,51.75
2024-05-09T09:03:39.377Z,50.43
2024-05-09T09:06:11.122Z,52.22
2024-05-09T09:08:43.226Z,52.23
2024-05-09T09:11:12.184Z,50.90
2024-05-09T09:13:46.402Z,53.39
2024-05-09T09:16:16.330Z,53.32
2024-05-09T09:18:50.039Z,52.77
2024-05-09T09:21:19.023Z,50.81
2024-05-09T09:23:50.621Z,51.81
2024-05-09T09:26:19.454Z,51.99
2024-05-09T09:28:54.461Z,53.33
2024-05-09T09:31:23.081Z,50.82
2024-05-09T09:33:55.136Z,52.82
2024-05-09T09:36:23.847Z,52.10
2024-05-09T09:38:55.507Z,52.64
2024-05-09T09:41:30.036Z,51.81
2024-05-09T09:44:06.522Z,52.62
2024-05-09T09:46:36.386Z,51.16
2024-05-09T09:49:09.449Z,51.02
2024-05-09T09:51:43.572Z,51.06
2024-05-09T09:54:16.367Z,52.26
2024-05-09T09:56:47.712Z,53.50
2024-05-09T09:59:24.221Z,53.22
2024-05-09T10:01:52.895Z,53.89
2024-05-09T10:04:24.878Z,51.96
2024-05-09T10:06:58.778Z,53.89
2024-05-09T10:09:30.598Z,54.09
2024-05-09T10:12:09.521Z,52.63
2024-05-09T10:14:50.625Z,52.29
2024-05-09T10:17:19.232Z,51.65
2024-05-09T10:19:51.090Z,53.41
2024-05-09T10:22:28.115Z,51.78
2024-05-09T10:25:08.330Z,50.94
2024-05-09T10:27:39.634Z,51.94
2024-05-09T10:30:29.424Z,50.85
2024-05-09T10:33:05.766Z,51.14
2024-05-09T10:35:34.760Z,49.80
2024-05-09T10:38:09.874Z,48.37
2024-05-09T10:40:40.279Z,49.85
2024-05-09T10:43:12.058Z,50.51
2024-05-09T10:45:43.706Z,50.36
2024-05-09T10:48:15.955Z,47.72
2024-05-09T10:50:49.698Z,48.38
2024-05-09T10:53:22.116Z,48.37
2024-05-09T10:55:57.135Z,48.20
2024-05-09T10:58:28.762Z,47.74
2024-05-09T11:01:05.434Z,47.25
2024-05-09T11:03:38.269Z,47.18
2024-05-09T11:06:09.825Z,46.89
2024-05-09T11:08:42.164Z,47.49
2024-05-09T11:11:11.742Z,45.29
2024-05-09T11:13:43.338Z,46.35
2024-05-09T11:16:21.292Z,45.70
2024-05-09T11:18:59.688Z,45.98
2024-05-09T11:21:28.772Z,46.05
2024-05-09T11:24:01.365Z,47.62
2024-05-09T11:26:33.019Z,46.71
2024-05-09T11:29:04.159Z,46.22
2024-05-09T11:31:46.751Z,47.17
2024-05-09T11:34:18.992Z,46.34
2024-05-09T11:36:48.042Z,46.56
2024-05-09T11:39:19.234Z,46.20
2024-05-09T11:41:48.155Z,47.06
2024-05-09T11:44:19.218Z,47.43
2024-05-09T11:46:51.005Z,47.16
2024-05-09T11:49:25.335Z,46.92
2024-05-09T11:51:55.305Z,46.04
2024-05-09T11:54:26.522Z,46.72
2024-05-09T11:56:55.499Z,45.47
2024-05-09T11:59:26.583Z,45.35
2024-05-09T12:01:58.395Z,46.63
2024-05-09T12:04:29.884Z,45.35
2024-05-09T12:06:59.098Z,46.94
2024-05-09T12:09:30.301Z,45.14
2024-05-09T12:11:59.253Z,45.40
2024-05-09T12:14:30.399Z,45.54
2024-05-09T12:17:03.962Z,45.55
2024-05-09T12:19:35.453Z,45.59
2024-05-09T12:22:04.928Z,44.73
2024-05-09T12:24:36.144Z,45.82
2024-05-09T12:27:05.666Z,45.80
2024-05-09T12:29:38.883Z,45.59
2024-05-09T12:32:10.770Z,44.28
2024-05-09T12:34:42.096Z,44.25
2024-05-09T12:37:11.266Z,45.32
2024-05-09T12:39:42.488Z,44.77
2024-05-09T12:42:14.625Z,45.29
2024-05-09T12:44:51.272Z,45.24
2024-05-09T12:47:23.024Z,45.47
2024-05-09T12:49:54.335Z,45.32
2024-05-09T12:52:23.501Z,43.74
2024-05-09T12:54:54.934Z,45.19
2024-05-09T12:57:25.643Z,46.05
2024-05-09T12:59:56.827Z,45.34
2024-05-09T13:02:28.634Z,45.24
2024-05-09T13:04:59.969Z,45.24
2024-05-09T13:07:29.147Z,45.52
2024-05-09T13:10:00.339Z,44.86
2024-05-09T13:12:29.362Z,45.32
2024-05-09T13:15:00.584Z,46.22
2024-05-09T13:17:33.101Z,44.75
2024-05-09T13:20:07.083Z,45.00
2024-05-09T13:22:39.169Z,45.29
2024-05-09T13:25:10.626Z,45.62
2024-05-09T13:27:39.814Z,45.14
2024-05-09T13:30:17.675Z,44.77
2024-05-09T13:32:57.537Z,46.25
2024-05-09T13:35:26.757Z,45.12
2024-05-09T13:37:58.802Z,46.32
2024-05-09T13:40:33.085Z,48.43
2024-05-09T13:43:07.299Z,47.46
2024-05-09T13:45:36.307Z,47.63
2024-05-09T13:48:11.121Z,48.18
2024-05-09T13:50:39.728Z,48.86
2024-05-09T13:53:11.834Z,49.24
2024-05-09T13:55:40.934Z,49.31
2024-05-09T13:58:12.589Z,49.96
2024-05-09T14:00:46.673Z,50.10
2024-05-09T14:03:23.295Z,49.18
2024-05-09T14:05:52.411Z,50.00
2024-05-09T14:08:24.709Z,50.44
2024-05-09T14:10:53.781Z,50.38
2024-05-09T14:13:25.514Z,50.22
2024-05-09T14:15:54.045Z,50.73
2024-05-09T14:18:28.381Z,51.54
2024-05-09T14:20:56.867Z,51.02
2024-05-09T14:23:28.420Z,50.96
2024-05-09T14:25:56.825Z,51.05
2024-05-09T14:28:29.021Z,50.60
2024-05-09T14:30:57.729Z,50.31
2024-05-09T14:33:32.189Z,51.03
2024-05-09T14:36:00.847Z,50.85
2024-05-09T14:38:32.558Z,51.24
2024-05-09T14:41:00.974Z,51.96
2024-05-09T14:43:32.609Z,51.63
2024-05-09T14:46:01.167Z,51.76
2024-05-09T14:48:35.657Z,52.13
2024-05-09T14:51:04.443Z,52.70
2024-05-09T14:53:35.862Z,52.40
2024-05-09T14:56:04.517Z,53.69
2024-05-09T14:58:36.005Z,52.83
2024-05-09T15:01:04.769Z,52.96
2024-05-09T15:03:38.910Z,52.86
2024-05-09T15:06:07.647Z,52.90
2024-05-09T15:08:39.197Z,53.62
2024-05-09T15:11:07.664Z,52.94
2024-05-09T15:13:39.213Z,53.33
2024-05-09T15:16:08.310Z,54.02
2024-05-09T15:18:44.017Z,54.06
2024-05-09T15:21:12.930Z,54.30
2024-05-09T15:23:44.425Z,55.03
2024-05-09T15:26:12.972Z,55.05
2024-05-09T15:28:44.665Z,55.52
2024-05-09T15:31:13.073Z,55.63
2024-05-09T15:33:47.136Z,54.88
2024-05-09T15:36:15.668Z,55.42
2024-05-09T15:38:47.135Z,55.33
2024-05-09T15:41:15.572Z,55.74
2024-05-09T15:43:47.006Z,56.00
2024-05-09T15:46:15.690Z,55.67
2024-05-09T15:48:49.933Z,56.02
2024-05-09T15:51:18.411Z,56.01
2024-05-09T15:53:50.048Z,56.01
2024-05-09T15:56:18.555Z,55.84
2024-05-09T15:58:50.133Z,56.33
2024-05-09T16:01:18.616Z,56.04
2024-05-09T16:03:53.391Z,56.22
2024-05-09T16:06:22.282Z,56.68
2024-05-09T16:08:53.756Z,56.90
2024-05-09T16:11:22.156Z,58.31
2024-05-09T16:13:53.518Z,57.68
2024-05-09T16:16:22.165Z,59.13
2024-05-09T16:18:56.508Z,58.46
2024-05-09T16:21:24.976Z,58.86
2024-05-09T16:23:56.439Z,58.24
2024-05-09T16:26:24.854Z,58.68
2024-05-09T16:28:56.396Z,58.96
2024-05-09T16:31:25.109Z,58.72
2024-05-09T16:33:59.759Z,58.49
2024-05-09T16:36:28.373Z,59.62
2024-05-09T16:39:00.254Z,59.45
2024-05-09T16:41:28.729Z,59.73
2024-05-09T16:44:01.796Z,59.73
2024-05-09T16:46:30.639Z,59.75
2024-05-09T16:49:05.787Z,60.49
2024-05-09T16:51:34.413Z,59.97
2024-05-09T16:54:05.893Z,60.36
2024-05-09T16:56:34.339Z,60.92
2024-05-09T16:59:05.892Z,60.95
2024-05-09T17:01:34.490Z,60.60
2024-05-09T17:04:09.185Z,60.04
2024-05-09T17:06:37.918Z,60.38
2024-05-09T17:09:11.961Z,60.59
2024-05-09T17:11:46.671Z,60.14
2024-05-09T17:14:18.483Z,60.72
2024-05-09T17:16:49.891Z,60.58
2024-05-09T17:19:21.559Z,60.44
2024-05-09T17:21:53.443Z,60.11
2024-05-09T17:24:22.341Z,60.04
2024-05-09T17:26:54.173Z,59.92
2024-05-09T17:29:23.136Z,59.97
2024-05-09T17:31:54.200Z,60.92
2024-05-09T17:34:26.208Z,60.92
2024-05-09T17:36:57.581Z,61.06
2024-05-09T17:39:26.725Z,61.67
2024-05-09T17:41:57.714Z,61.38
2024-05-09T17:44:27.164Z,61.93
2024-05-09T17:46:58.549Z,61.96
2024-05-09T17:49:30.396Z,61.33
2024-05-09T17:52:01.594Z,62.45
2024-05-09T17:54:30.527Z,62.04
2024-05-09T17:57:01.619Z,62.59
2024-05-09T17:59:30.605Z,62.84
2024-05-09T18:02:02.019Z,62.28
2024-05-09T18:04:34.120Z,63.49
2024-05-09T18:07:05.400Z,63.53
2024-05-09T18:09:34.262Z,64.12
2024-05-09T18:12:05.335Z,63.90
2024-05-09T18:14:34.205Z,63.91
2024-05-09T18:17:05.904Z,63.42
2024-05-09T18:19:37.733Z,65.48
2024-05-09T18:22:09.210Z,65.52
2024-05-09T18:24:38.310Z,65.35
2024-05-09T18:27:10.123Z,65.18
2024-05-09T18:29:39.014Z,67.69
2024-05-09T18:32:10.388Z,67.94
2024-05-09T18:34:42.001Z,68.48
2024-05-09T18:37:13.241Z,68.24
2024-05-09T18:39:42.406Z,68.76
2024-05-09T18:42:13.715Z,67.51
2024-05-09T18:44:42.679Z,68.30
2024-05-09T18:47:16.032Z,68.61
2024-05-09T18:49:49.289Z,68.59
2024-05-09T18:52:20.579Z,68.16
2024-05-09T18:54:49.641Z,68.00
2024-05-09T18:57:20.774Z,68.45
2024-05-09T18:59:49.649Z,68.42
2024-05-09T19:02:20.944Z,69.02
2024-05-09T19:04:52.940Z,68.87
2024-05-09T19:07:24.292Z,69.19
2024-05-09T19:09:53.431Z,69.64
2024-05-09T19:12:24.417Z,69.40
2024-05-09T19:14:53.508Z,67.98
2024-05-09T19:17:24.703Z,68.34
2024-05-09T19:19:56.764Z,68.54
2024-05-09T19:22:28.366Z,69.44
2024-05-09T19:24:57.282Z,69.56
2024-05-09T19:27:28.845Z,70.01
2024-05-09T19:29:58.054Z,70.63
2024-05-09T19:32:29.507Z,70.50
2024-05-09T19:35:01.126Z,70.46
2024-05-09T19:37:32.481Z,70.22
2024-05-09T19:40:01.391Z,69.95
2024-05-09T19:42:32.731Z,70.92
2024-05-09T19:45:01.717Z,71.38
2024-05-09T19:47:32.843Z,71.45
2024-05-09T19:50:10.526Z,71.17
2024-05-09T19:52:42.214Z,70.93
2024-05-09T19:55:11.252Z,71.22
2024-05-09T19:57:42.442Z,71.56
2024-05-09T20:00:17.913Z,71.49
2024-05-09T20:02:53.541Z,71.71
2024-05-09T20:05:25.528Z,70.66
2024-05-09T20:07:57.050Z,70.41
2024-05-09T20:10:31.464Z,70.61
2024-05-09T20:13:05.708Z,70.92
2024-05-09T20:15:37.061Z,71.17
2024-05-09T20:18:08.506Z,71.52
2024-05-09T20:20:42.899Z,71.66
2024-05-09T20:23:16.208Z,70.93
2024-05-09T20:25:45.078Z,71.85
2024-05-09T20:28:16.705Z,71.25
2024-05-09T20:30:45.761Z,70.84
2024-05-09T20:33:17.014Z,71.26
2024-05-09T20:35:48.732Z,71.79
2024-05-09T20:38:19.812Z,72.01
2024-05-09T20:40:49.093Z,73.15
2024-05-09T20:43:20.740Z,72.35
2024-05-09T20:45:49.785Z,71.80
2024-05-09T20:48:21.137Z,71.24
2024-05-09T20:50:52.726Z,72.63
2024-05-09T20:53:23.758Z,73.22
2024-05-09T20:55:52.695Z,73.26
2024-05-09T20:58:23.850Z,74.14
2024-05-09T21:00:52.841Z,73.26
2024-05-09T21:03:24.015Z,74.18
2024-05-09T21:05:56.298Z,72.89
2024-05-09T21:08:27.961Z,73.25
2024-05-09T21:10:56.885Z,73.78
2024-05-09T21:13:28.095Z,74.95
2024-05-09T21:15:57.198Z,75.41
2024-05-09T21:18:28.308Z,74.42
2024-05-09T21:20:59.963Z,74.55
2024-05-09T21:23:31.076Z,74.24
2024-05-09T21:25:59.942Z,73.43
2024-05-09T21:28:31.586Z,73.81
2024-05-09T21:31:00.490Z,74.01
2024-05-09T21:33:31.691Z,75.17
2024-05-09T21:36:03.273Z,74.32
2024-05-09T21:38:34.508Z,73.61
2024-05-09T21:41:03.345Z,73.40
2024-05-09T21:43:34.395Z,73.67
2024-05-09T21:46:03.457Z,73.34
2024-05-09T21:48:34.668Z,72.98
2024-05-09T21:51:14.220Z,73.14
2024-05-09T21:53:45.415Z,72.65
2024-05-09T21:56:14.347Z,72.84
2024-05-09T21:58:45.344Z,74.72
2024-05-09T22:01:14.463Z,74.67
2024-05-09T22:03:45.973Z,74.99
2024-05-09T22:06:17.715Z,74.78
2024-05-09T22:08:48.724Z,75.38
2024-05-09T22:11:17.661Z,75.50
2024-05-09T22:13:48.679Z,75.77
2024-05-09T22:16:17.999Z,75.14
2024-05-09T22:18:49.283Z,75.05
2024-05-09T22:21:20.953Z,74.53
2024-05-09T22:23:52.190Z,74.43
2024-05-09T22:26:21.138Z,74.08
2024-05-09T22:28:52.071Z,73.79
2024-05-09T22:31:21.052Z,73.26
2024-05-09T22:33:52.480Z,72.87
2024-05-09T22:36:24.716Z,72.24
2024-05-09T22:38:55.654Z,71.44
2024-05-09T22:41:24.575Z,71.62
2024-05-09T22:43:55.558Z,70.88
2024-05-09T22:46:24.579Z,70.74
2024-05-09T22:48:55.975Z,71.16
2024-05-09T22:51:27.578Z,70.67
2024-05-09T22:53:58.688Z,70.57
2024-05-09T22:56:30.847Z,70.32
2024-05-09T22:59:00.831Z,70.57
2024-05-09T23:01:32.559Z,70.28
2024-05-09T23:04:02.343Z,70.91
2024-05-09T23:06:37.501Z,70.76
2024-05-09T23:09:08.191Z,70.42
2024-05-09T23:11:45.811Z,70.37
2024-05-09T23:14:14.415Z,70.93
2024-05-09T23:16:45.973Z,70.34
2024-05-09T23:19:14.604Z,70.58
2024-05-09T23:21:48.740Z,70.13
2024-05-09T23:24:17.270Z,69.44
2024-05-09T23:26:48.541Z,69.44
2024-05-09T23:29:16.917Z,69.38
2024-05-09T23:31:48.216Z,69.30
2024-05-09T23:34:16.904Z,69.37
2024-05-09T23:36:51.223Z,69.20
2024-05-09T23:39:19.717Z,69.03
2024-05-09T23:41:51.272Z,70.27
2024-05-09T23:44:19.778Z,69.46
2024-05-09T23:46:51.313Z,69.63
2024-05-09T23:49:19.794Z,69.45
2024-05-09T23:51:53.951Z,70.14
2024-05-09T23:54:22.450Z,69.57
2024-05-09T23:56:53.924Z,69.59
2024-05-09T23:59:22.316Z,69.26
